Time;durP1;ratioP1;P1;durP2;ratioP2;P2;SDS_P1;SDS_P2;PMS_P1;PMS_P2;Temp;Humidity;BMP_temperature;BMP_pressure;BME280_temperature;BME280_humidity;BME280_pressure;Samples;Min_cycle;Max_cycle;Signal;HPM_P1;HPM_P2
2021/04/02 00:01:30;;;;;;;9.52;3.83;;;;;;;;;;5058123;28;32234;-72
2021/04/02 00:03:55;;;;;;;11.63;4.85;;;;;;;;;;5058257;28;32908;-74
2021/04/02 00:06:21;;;;;;;17.48;4.10;;;;;;;;;;5058074;28;31675;-73
2021/04/02 00:08:47;;;;;;;9.60;4.03;;;;;;;;;;5058076;28;32186;-72
2021/04/02 00:11:13;;;;;;;9.35;4.25;;;;;;;;;;5058204;28;32290;-72
2021/04/02 00:13:41;;;;;;;11.32;4.32;;;;;;;;;;5056601;28;32886;-73
2021/04/02 00:16:07;;;;;;;12.10;4.53;;;;;;;;;;5056641;28;30340;-73
2021/04/02 00:18:33;;;;;;;8.82;4.97;;;;;;;;;;5057229;28;32695;-72
2021/04/02 00:21:00;;;;;;;10.15;4.60;;;;;;;;;;5056896;28;32282;-71
2021/04/02 00:23:25;;;;;;;11.52;4.32;;;;;;;;;;5058157;28;31921;-72
2021/04/02 00:25:51;;;;;;;7.38;3.95;;;;;;;;;;5058498;28;31938;-72
2021/04/02 00:28:17;;;;;;;14.60;5.07;;;;;;;;;;5058340;28;32578;-72
2021/04/02 00:30:43;;;;;;;11.63;4.55;;;;;;;;;;5057885;28;32156;-73
2021/04/02 00:33:09;;;;;;;12.45;4.22;;;;;;;;;;5058354;28;31901;-72
2021/04/02 00:35:35;;;;;;;11.55;4.53;;;;;;;;;;5057629;28;32087;-72
2021/04/02 00:38:02;;;;;;;8.73;3.67;;;;;;;;;;5057438;28;33549;-72
2021/04/02 00:40:30;;;;;;;11.50;4.28;;;;;;;;;;5057920;28;32434;-72
2021/04/02 00:42:56;;;;;;;11.10;4.18;;;;;;;;;;5058692;28;32853;-76
2021/04/02 00:45:22;;;;;;;10.40;4.45;;;;;;;;;;5056904;28;30569;-75
2021/04/02 00:47:49;;;;;;;12.95;4.55;;;;;;;;;;5057887;28;32477;-76
2021/04/02 00:50:21;;;;;;;7.32;3.72;;;;;;;;;;5057998;28;32039;-76
2021/04/02 00:52:46;;;;;;;9.70;4.60;;;;;;;;;;5056569;28;30246;-75
2021/04/02 00:55:12;;;;;;;10.77;3.78;;;;;;;;;;5055613;28;31987;-76
2021/04/02 00:57:38;;;;;;;9.98;4.30;;;;;;;;;;5040544;28;30890;-75
2021/04/02 01:00:06;;;;;;;11.23;4.32;;;;;;;;;;5056836;28;30834;-76
2021/04/02 01:02:32;;;;;;;8.65;4.35;;;;;;;;;;5057168;28;31728;-75
2021/04/02 01:04:58;;;;;;;13.27;4.72;;;;;;;;;;5060921;28;32822;-76
2021/04/02 01:07:24;;;;;;;9.45;4.35;;;;;;;;;;5060636;28;32356;-75
2021/04/02 01:09:50;;;;;;;9.35;3.83;;;;;;;;;;5060387;28;31972;-73
2021/04/02 01:12:16;;;;;;;16.25;4.80;;;;;;;;;;5060310;28;32079;-76
2021/04/02 01:14:41;;;;;;;16.27;4.60;;;;;;;;;;5059850;28;32070;-76
2021/04/02 01:17:07;;;;;;;13.13;4.00;;;;;;;;;;5058960;28;30994;-75
2021/04/02 01:19:37;;;;;;;13.60;4.43;;;;;;;;;;5058883;28;30798;-74
2021/04/02 01:22:06;;;;;;;14.00;4.82;;;;;;;;;;5060928;28;32740;-73
2021/04/02 01:24:52;;;;;;;14.50;4.57;;;;;;;;;;5060068;28;30529;-76
2021/04/02 01:27:41;;;;;;;14.98;5.07;;;;;;;;;;5060787;28;32757;-75
2021/04/02 01:30:08;;;;;;;16.08;5.22;;;;;;;;;;5058322;28;30611;-75
2021/04/02 01:32:42;;;;;;;11.75;4.75;;;;;;;;;;5060298;28;32091;-71
2021/04/02 01:35:15;;;;;;;12.38;5.10;;;;;;;;;;5059368;28;30485;-74
2021/04/02 01:37:48;;;;;;;10.75;4.50;;;;;;;;;;5060253;28;33518;-75
2021/04/02 01:40:15;;;;;;;8.40;3.67;;;;;;;;;;5060054;28;32363;-76
2021/04/02 01:42:41;;;;;;;9.82;4.55;;;;;;;;;;5058622;28;30621;-75
2021/04/02 01:45:09;;;;;;;12.30;4.47;;;;;;;;;;5059175;28;30779;-71
2021/04/02 01:47:37;;;;;;;11.70;4.68;;;;;;;;;;5059893;28;33699;-75
2021/04/02 01:50:04;;;;;;;14.05;4.07;;;;;;;;;;5058651;28;31969;-76
2021/04/02 01:52:31;;;;;;;12.70;4.15;;;;;;;;;;5060836;28;31945;-76
2021/04/02 01:54:58;;;;;;;9.75;4.28;;;;;;;;;;5059114;28;31606;-73
2021/04/02 01:57:25;;;;;;;14.15;5.40;;;;;;;;;;5059009;28;31099;-76
2021/04/02 01:59:53;;;;;;;10.00;4.75;;;;;;;;;;5060804;28;31885;-75
2021/04/02 02:02:20;;;;;;;9.00;4.38;;;;;;;;;;5058887;28;30557;-75
2021/04/02 02:04:48;;;;;;;10.00;4.25;;;;;;;;;;5059306;28;30622;-73
2021/04/02 02:07:15;;;;;;;13.68;4.72;;;;;;;;;;5059097;28;31023;-76
2021/04/02 02:10:02;;;;;;;15.95;4.57;;;;;;;;;;5058877;28;31146;-75
2021/04/02 02:12:36;;;;;;;9.95;4.13;;;;;;;;;;5060714;28;32914;-74
2021/04/02 02:15:11;;;;;;;11.48;4.35;;;;;;;;;;5058648;28;30949;-76
2021/04/02 02:17:37;;;;;;;12.50;4.18;;;;;;;;;;5060287;28;31154;-72
2021/04/02 02:20:07;;;;;;;15.35;4.25;;;;;;;;;;5065885;28;32346;-74
2021/04/02 02:22:33;;;;;;;9.48;4.32;;;;;;;;;;5063479;28;30574;-75
2021/04/02 02:25:08;;;;;;;8.10;3.55;;;;;;;;;;5060382;28;32235;-75
2021/04/02 02:27:36;;;;;;;9.63;4.05;;;;;;;;;;5059608;28;31029;-75
2021/04/02 02:30:22;;;;;;;10.13;4.15;;;;;;;;;;5060492;28;32265;-75
2021/04/02 02:32:54;;;;;;;8.55;4.28;;;;;;;;;;5059302;28;31306;-75
2021/04/02 02:35:23;;;;;;;16.10;3.95;;;;;;;;;;5058947;28;30372;-73
2021/04/02 02:37:52;;;;;;;15.02;4.47;;;;;;;;;;5058182;28;32045;-74
2021/04/02 02:40:22;;;;;;;11.30;4.38;;;;;;;;;;5059529;28;32300;-74
2021/04/02 02:42:49;;;;;;;7.30;3.30;;;;;;;;;;5057194;28;30542;-75
2021/04/02 02:45:15;;;;;;;10.75;3.40;;;;;;;;;;5058019;28;32970;-75
2021/04/02 02:47:41;;;;;;;8.80;4.07;;;;;;;;;;5058333;28;31986;-75
2021/04/02 02:50:09;;;;;;;9.48;3.65;;;;;;;;;;5057423;28;32260;-71
2021/04/02 02:52:36;;;;;;;11.98;4.10;;;;;;;;;;5058254;28;31890;-72
2021/04/02 02:55:04;;;;;;;14.57;4.15;;;;;;;;;;5059963;28;32109;-72
2021/04/02 02:57:31;;;;;;;13.57;3.92;;;;;;;;;;5057780;28;32726;-72
2021/04/02 02:59:58;;;;;;;11.23;3.83;;;;;;;;;;5060820;28;33257;-72
2021/04/02 03:02:25;;;;;;;7.60;3.60;;;;;;;;;;5065281;28;36481;-72
2021/04/02 03:04:52;;;;;;;14.50;4.45;;;;;;;;;;5065512;28;30839;-73
2021/04/02 03:07:20;;;;;;;7.55;3.30;;;;;;;;;;5062773;28;31280;-73
2021/04/02 03:09:48;;;;;;;11.15;3.95;;;;;;;;;;5077227;28;30658;-72
2021/04/02 03:12:14;;;;;;;17.73;4.00;;;;;;;;;;5076960;28;31313;-73
2021/04/02 03:14:44;;;;;;;8.57;4.45;;;;;;;;;;5077203;28;31449;-73
2021/04/02 03:17:12;;;;;;;10.85;3.97;;;;;;;;;;5077572;28;31157;-73
2021/04/02 03:19:41;;;;;;;16.27;4.07;;;;;;;;;;5079057;28;31978;-72
2021/04/02 03:22:14;;;;;;;13.80;4.35;;;;;;;;;;5077726;28;30415;-72
2021/04/02 03:24:48;;;;;;;10.82;3.60;;;;;;;;;;5077336;28;30591;-72
2021/04/02 03:27:21;;;;;;;10.52;4.25;;;;;;;;;;5076268;28;31044;-72
2021/04/02 03:29:49;;;;;;;17.50;4.57;;;;;;;;;;5077222;28;31768;-72
2021/04/02 03:32:17;;;;;;;18.83;4.45;;;;;;;;;;5061001;28;30423;-72
2021/04/02 03:34:43;;;;;;;15.45;4.07;;;;;;;;;;5077531;28;30533;-74
2021/04/02 03:37:13;;;;;;;18.48;4.85;;;;;;;;;;5077500;28;31168;-75
2021/04/02 03:39:47;;;;;;;17.77;4.53;;;;;;;;;;5062766;28;30690;-71
2021/04/02 03:42:18;;;;;;;9.88;3.97;;;;;;;;;;5056577;28;31692;-78
2021/04/02 03:44:47;;;;;;;11.45;3.92;;;;;;;;;;5038953;28;31497;-75
2021/04/02 03:47:16;;;;;;;12.88;3.85;;;;;;;;;;5056942;28;31100;-74
2021/04/02 03:49:43;;;;;;;7.50;3.90;;;;;;;;;;5057794;28;36758;-75
2021/04/02 03:52:20;;;;;;;8.60;3.88;;;;;;;;;;5057698;28;31608;-75
2021/04/02 03:54:48;;;;;;;8.27;3.78;;;;;;;;;;5053716;28;31673;-72
2021/04/02 03:57:15;;;;;;;15.02;4.25;;;;;;;;;;5057289;28;32930;-74
2021/04/02 03:59:43;;;;;;;10.30;4.28;;;;;;;;;;5055106;28;32441;-75
2021/04/02 04:02:10;;;;;;;12.27;4.78;;;;;;;;;;5056696;28;31512;-72
2021/04/02 04:04:37;;;;;;;18.17;4.63;;;;;;;;;;5057387;28;31879;-73
2021/04/02 04:07:12;;;;;;;10.57;4.30;;;;;;;;;;5058487;28;40363;-75
2021/04/02 04:09:39;;;;;;;11.30;4.18;;;;;;;;;;5067947;28;32306;-75
2021/04/02 04:12:13;;;;;;;16.77;4.38;;;;;;;;;;5064099;28;31256;-76
2021/04/02 04:14:48;;;;;;;10.57;3.22;;;;;;;;;;5056734;28;31008;-76
2021/04/02 04:17:19;;;;;;;15.40;4.35;;;;;;;;;;5057161;28;31351;-70
2021/04/02 04:19:48;;;;;;;11.05;3.58;;;;;;;;;;5057273;28;32033;-72
2021/04/02 04:22:17;;;;;;;14.90;4.05;;;;;;;;;;5056545;28;32042;-73
2021/04/02 04:24:45;;;;;;;11.00;4.13;;;;;;;;;;5057060;28;31044;-72
2021/04/02 04:27:11;;;;;;;9.65;3.70;;;;;;;;;;5051181;28;32624;-73
2021/04/02 04:29:41;;;;;;;12.10;3.75;;;;;;;;;;5063991;28;32072;-73
2021/04/02 04:32:08;;;;;;;16.45;4.65;;;;;;;;;;5064919;28;32138;-73
2021/04/02 04:34:34;;;;;;;15.40;3.75;;;;;;;;;;5069868;28;32032;-72
2021/04/02 04:37:00;;;;;;;8.27;3.60;;;;;;;;;;5062200;28;32566;-73
2021/04/02 04:39:27;;;;;;;11.40;3.95;;;;;;;;;;5063927;28;32204;-71
2021/04/02 04:41:53;;;;;;;12.05;4.00;;;;;;;;;;5071462;28;32878;-73
2021/04/02 04:44:20;;;;;;;11.13;3.97;;;;;;;;;;5066792;28;32978;-72
2021/04/02 04:46:46;;;;;;;8.98;4.03;;;;;;;;;;5067919;28;33538;-73
2021/04/02 04:49:12;;;;;;;12.70;3.83;;;;;;;;;;5066133;28;32193;-71
2021/04/02 04:51:38;;;;;;;10.05;4.30;;;;;;;;;;5070587;28;32263;-71
2021/04/02 04:54:04;;;;;;;10.93;3.83;;;;;;;;;;5069351;28;32031;-70
2021/04/02 04:56:31;;;;;;;17.40;4.88;;;;;;;;;;5070085;28;32497;-70
2021/04/02 04:59:00;;;;;;;10.98;4.10;;;;;;;;;;5063151;28;33187;-72
2021/04/02 05:01:29;;;;;;;10.55;4.05;;;;;;;;;;5068582;28;31515;-72
2021/04/02 05:03:55;;;;;;;10.43;4.35;;;;;;;;;;5068931;28;32334;-73
2021/04/02 05:06:21;;;;;;;7.15;3.25;;;;;;;;;;5068694;28;33393;-73
2021/04/02 05:08:48;;;;;;;10.68;4.18;;;;;;;;;;5064346;28;33597;-72
2021/04/02 05:11:15;;;;;;;12.88;3.63;;;;;;;;;;5066936;28;32624;-75
2021/04/02 05:13:43;;;;;;;9.48;3.67;;;;;;;;;;5060506;28;32182;-71
2021/04/02 05:16:10;;;;;;;12.07;3.70;;;;;;;;;;5070047;28;33221;-72
2021/04/02 05:18:36;;;;;;;16.08;3.78;;;;;;;;;;5068182;28;32168;-71
2021/04/02 05:21:02;;;;;;;11.93;3.33;;;;;;;;;;5067477;28;33142;-71
2021/04/02 05:23:27;;;;;;;9.82;4.28;;;;;;;;;;5069299;28;32066;-72
2021/04/02 05:25:53;;;;;;;10.38;3.78;;;;;;;;;;5067146;28;33482;-72
2021/04/02 05:28:19;;;;;;;11.68;3.25;;;;;;;;;;5067548;28;32467;-74
2021/04/02 05:30:44;;;;;;;8.88;3.83;;;;;;;;;;5067595;28;31911;-73
2021/04/02 05:33:10;;;;;;;10.05;3.65;;;;;;;;;;5066377;28;32927;-72
2021/04/02 05:35:36;;;;;;;9.82;3.35;;;;;;;;;;5070309;28;33667;-75
2021/04/02 05:38:02;;;;;;;12.73;3.95;;;;;;;;;;5069005;28;32307;-70
2021/04/02 05:40:28;;;;;;;5.22;2.88;;;;;;;;;;5068058;28;31964;-76
2021/04/02 05:43:14;;;;;;;7.45;2.80;;;;;;;;;;5053717;28;30551;-71
2021/04/02 05:45:40;;;;;;;14.57;3.58;;;;;;;;;;5066255;28;31379;-71
2021/04/02 05:48:06;;;;;;;10.30;3.30;;;;;;;;;;5065761;28;32285;-75
2021/04/02 05:50:33;;;;;;;11.90;3.47;;;;;;;;;;5059957;28;32053;-76
2021/04/02 05:53:02;;;;;;;15.63;3.28;;;;;;;;;;5064180;28;32072;-73
2021/04/02 05:55:28;;;;;;;10.43;3.10;;;;;;;;;;5066484;28;37558;-76
2021/04/02 05:57:53;;;;;;;9.65;3.28;;;;;;;;;;5064041;28;32087;-71
2021/04/02 06:00:19;;;;;;;11.52;3.92;;;;;;;;;;5067275;28;32487;-71
2021/04/02 06:02:45;;;;;;;14.88;3.17;;;;;;;;;;5067161;28;31798;-72
2021/04/02 06:05:11;;;;;;;15.23;3.70;;;;;;;;;;5057105;28;32493;-71
2021/04/02 06:07:38;;;;;;;14.10;3.40;;;;;;;;;;5065065;28;32123;-71
2021/04/02 06:10:04;;;;;;;11.68;3.63;;;;;;;;;;5057611;28;32880;-71
2021/04/02 06:12:34;;;;;;;9.73;3.38;;;;;;;;;;5059877;28;32452;-71
2021/04/02 06:15:04;;;;;;;7.90;3.50;;;;;;;;;;5073229;28;31189;-71
2021/04/02 06:17:56;;;;;;;12.00;3.63;;;;;;;;;;5067052;28;32453;-69
2021/04/02 06:20:24;;;;;;;8.32;3.75;;;;;;;;;;5063961;28;32539;-69
2021/04/02 06:23:00;;;;;;;10.73;2.92;;;;;;;;;;5061604;28;32175;-68
2021/04/02 06:25:26;;;;;;;9.38;2.75;;;;;;;;;;5065417;28;32245;-69
2021/04/02 06:27:52;;;;;;;7.15;3.22;;;;;;;;;;5061591;28;32391;-70
2021/04/02 06:30:18;;;;;;;7.65;3.22;;;;;;;;;;5062400;28;32530;-70
2021/04/02 06:32:49;;;;;;;8.10;2.75;;;;;;;;;;5063865;28;31766;-71
2021/04/02 06:35:15;;;;;;;6.25;2.88;;;;;;;;;;5063699;28;33588;-69
2021/04/02 06:37:40;;;;;;;6.50;2.60;;;;;;;;;;5062257;28;32863;-70
2021/04/02 06:40:14;;;;;;;11.82;3.05;;;;;;;;;;5065224;28;32871;-70
2021/04/02 06:42:42;;;;;;;8.88;3.08;;;;;;;;;;5062905;28;31867;-74
2021/04/02 06:45:08;;;;;;;4.57;2.60;;;;;;;;;;5062262;28;31694;-69
2021/04/02 06:47:38;;;;;;;8.85;3.13;;;;;;;;;;5064140;28;31359;-70
2021/04/02 06:50:19;;;;;;;11.25;3.10;;;;;;;;;;5062941;28;31732;-69
2021/04/02 06:53:03;;;;;;;8.05;2.58;;;;;;;;;;5065808;28;32998;-69
2021/04/02 06:55:29;;;;;;;7.45;3.28;;;;;;;;;;5061922;28;32450;-68
2021/04/02 06:57:57;;;;;;;7.60;2.95;;;;;;;;;;5061614;28;32442;-69
2021/04/02 07:00:27;;;;;;;11.60;3.03;;;;;;;;;;5065203;28;32744;-69
2021/04/02 07:02:53;;;;;;;8.50;2.78;;;;;;;;;;5062445;28;31920;-70
2021/04/02 07:05:24;;;;;;;4.55;2.30;;;;;;;;;;5064881;28;32808;-70
2021/04/02 07:07:54;;;;;;;13.95;2.83;;;;;;;;;;5059021;28;33191;-70
2021/04/02 07:10:23;;;;;;;7.50;2.83;;;;;;;;;;5065252;28;32002;-67
2021/04/02 07:12:52;;;;;;;7.88;2.95;;;;;;;;;;5068246;28;32134;-68
2021/04/02 07:15:18;;;;;;;5.60;2.40;;;;;;;;;;5062872;28;33075;-68
2021/04/02 07:17:44;;;;;;;11.07;3.05;;;;;;;;;;5064169;28;32299;-72
2021/04/02 07:20:10;;;;;;;6.80;2.47;;;;;;;;;;5062428;28;33131;-72
2021/04/02 07:22:36;;;;;;;7.25;2.40;;;;;;;;;;5066443;28;32051;-69
2021/04/02 07:25:02;;;;;;;9.85;2.70;;;;;;;;;;5062948;28;32563;-71
2021/04/02 07:27:28;;;;;;;8.48;2.70;;;;;;;;;;5061625;28;37622;-73
2021/04/02 07:30:00;;;;;;;12.27;2.25;;;;;;;;;;5055849;28;31864;-74
2021/04/02 07:32:27;;;;;;;4.83;2.23;;;;;;;;;;5056728;28;20049;-70
2021/04/02 07:34:53;;;;;;;19.17;3.45;;;;;;;;;;5054174;28;32618;-71
2021/04/02 07:37:19;;;;;;;11.23;2.75;;;;;;;;;;5044623;28;31937;-72
2021/04/02 07:39:53;;;;;;;16.17;3.92;;;;;;;;;;5035170;28;31518;-71
2021/04/02 07:42:22;;;;;;;11.27;3.20;;;;;;;;;;5037770;28;32546;-70
2021/04/02 07:44:54;;;;;;;15.65;3.15;;;;;;;;;;5044154;28;32612;-71
2021/04/02 07:47:21;;;;;;;11.73;3.10;;;;;;;;;;5044606;28;31819;-73
2021/04/02 07:49:46;;;;;;;11.57;3.75;;;;;;;;;;5050676;28;32110;-70
2021/04/02 07:52:12;;;;;;;15.20;3.70;;;;;;;;;;5057326;28;31928;-70
2021/04/02 07:54:41;;;;;;;11.60;2.85;;;;;;;;;;5057912;28;32826;-71
2021/04/02 07:57:09;;;;;;;12.98;3.35;;;;;;;;;;5047215;28;33191;-75
2021/04/02 07:59:41;;;;;;;12.10;3.30;;;;;;;;;;5038040;28;32054;-74
2021/04/02 08:02:10;;;;;;;14.80;4.03;;;;;;;;;;5036875;28;33304;-71
2021/04/02 08:04:41;;;;;;;12.65;3.38;;;;;;;;;;5036700;28;33604;-72
2021/04/02 08:07:17;;;;;;;9.43;3.40;;;;;;;;;;5034962;28;32180;-73
2021/04/02 08:09:49;;;;;;;10.75;3.08;;;;;;;;;;5035689;28;32472;-71
2021/04/02 08:12:20;;;;;;;11.32;3.85;;;;;;;;;;5050025;28;32106;-71
2021/04/02 08:14:47;;;;;;;12.40;3.80;;;;;;;;;;5057366;28;30920;-71
2021/04/02 08:17:17;;;;;;;10.57;3.05;;;;;;;;;;5047437;28;32747;-71
2021/04/02 08:19:43;;;;;;;13.82;4.10;;;;;;;;;;5047623;28;32761;-70
2021/04/02 08:22:10;;;;;;;16.00;3.97;;;;;;;;;;5059851;28;31768;-71
2021/04/02 08:24:37;;;;;;;7.78;3.10;;;;;;;;;;5057229;28;32397;-71
2021/04/02 08:27:03;;;;;;;12.82;4.03;;;;;;;;;;5050637;28;32216;-75
2021/04/02 08:29:32;;;;;;;10.68;3.20;;;;;;;;;;5040666;28;31902;-74
2021/04/02 08:32:02;;;;;;;13.75;3.35;;;;;;;;;;5047859;28;31714;-75
2021/04/02 08:34:29;;;;;;;9.70;3.70;;;;;;;;;;5059754;28;32604;-73
2021/04/02 08:36:56;;;;;;;6.80;2.08;;;;;;;;;;5052564;28;31939;-73
2021/04/02 08:39:25;;;;;;;10.80;2.70;;;;;;;;;;5041098;28;32832;-71
2021/04/02 08:41:54;;;;;;;7.97;2.10;;;;;;;;;;5046571;28;32178;-73
2021/04/02 08:44:26;;;;;;;11.07;3.22;;;;;;;;;;5060886;28;33508;-73
2021/04/02 08:46:51;;;;;;;5.03;2.17;;;;;;;;;;5049663;28;32244;-72
2021/04/02 08:49:17;;;;;;;5.00;1.73;;;;;;;;;;5051392;28;32471;-73
2021/04/02 08:51:47;;;;;;;5.93;1.98;;;;;;;;;;5060209;28;32103;-70
2021/04/02 08:54:15;;;;;;;8.32;3.42;;;;;;;;;;5057412;28;32738;-69
2021/04/02 08:56:41;;;;;;;4.75;1.65;;;;;;;;;;5053824;28;32780;-74
2021/04/02 08:59:07;;;;;;;15.75;3.30;;;;;;;;;;5040637;28;32941;-67
2021/04/02 09:01:33;;;;;;;5.85;2.08;;;;;;;;;;5044706;28;32865;-69
2021/04/02 09:03:59;;;;;;;9.68;2.20;;;;;;;;;;5057345;28;32628;-70
2021/04/02 09:06:25;;;;;;;15.25;2.85;;;;;;;;;;5054462;28;32287;-73
2021/04/02 09:08:50;;;;;;;9.05;2.30;;;;;;;;;;5039438;28;32980;-71
2021/04/02 09:11:16;;;;;;;8.20;2.58;;;;;;;;;;5039810;28;31988;-75
2021/04/02 09:13:43;;;;;;;10.55;2.42;;;;;;;;;;5043702;28;32374;-70
2021/04/02 09:16:09;;;;;;;9.20;2.00;;;;;;;;;;5065473;28;33207;-71
2021/04/02 09:18:49;;;;;;;10.85;2.75;;;;;;;;;;5043093;28;32866;-71
2021/04/02 09:21:16;;;;;;;8.80;2.30;;;;;;;;;;5060482;28;33106;-75
2021/04/02 09:23:42;;;;;;;11.38;2.72;;;;;;;;;;5057663;28;32245;-74
2021/04/02 09:26:09;;;;;;;7.10;2.67;;;;;;;;;;5062973;28;32215;-72
2021/04/02 09:28:36;;;;;;;6.90;2.50;;;;;;;;;;5079411;28;31678;-72
2021/04/02 09:31:15;;;;;;;11.27;2.65;;;;;;;;;;5078740;28;32015;-71
2021/04/02 09:33:41;;;;;;;8.68;2.75;;;;;;;;;;5069899;28;33634;-72
2021/04/02 09:36:11;;;;;;;9.30;2.40;;;;;;;;;;5055661;28;30766;-72
2021/04/02 09:38:37;;;;;;;11.07;2.60;;;;;;;;;;5058615;28;32894;-71
2021/04/02 09:41:02;;;;;;;13.07;2.13;;;;;;;;;;5057073;28;32543;-72
2021/04/02 09:43:44;;;;;;;7.85;2.30;;;;;;;;;;5059593;28;32773;-74
2021/04/02 09:46:14;;;;;;;8.20;2.28;;;;;;;;;;5054351;28;32159;-72
2021/04/02 09:48:40;;;;;;;12.80;2.45;;;;;;;;;;5051424;28;32939;-76
2021/04/02 09:51:06;;;;;;;13.50;3.05;;;;;;;;;;5058553;28;31974;-73
2021/04/02 09:53:31;;;;;;;12.32;2.35;;;;;;;;;;5056555;28;33617;-71
2021/04/02 09:55:57;;;;;;;8.40;3.05;;;;;;;;;;5058637;28;32306;-71
2021/04/02 09:58:23;;;;;;;12.70;2.45;;;;;;;;;;5038798;28;32587;-72
2021/04/02 10:00:49;;;;;;;5.75;2.20;;;;;;;;;;5054238;28;33039;-71
2021/04/02 10:03:15;;;;;;;9.35;2.05;;;;;;;;;;5069245;28;32736;-72
2021/04/02 10:05:40;;;;;;;7.35;2.03;;;;;;;;;;5053563;28;32010;-73
2021/04/02 10:08:07;;;;;;;11.10;2.25;;;;;;;;;;5066440;28;31040;-74
2021/04/02 10:10:33;;;;;;;7.63;1.40;;;;;;;;;;5062326;28;32431;-76
2021/04/02 10:12:59;;;;;;;8.45;2.10;;;;;;;;;;5055047;28;32311;-75
2021/04/02 10:15:24;;;;;;;8.63;1.80;;;;;;;;;;5058263;28;32943;-75
2021/04/02 10:17:50;;;;;;;9.82;2.22;;;;;;;;;;5042972;28;31483;-71
2021/04/02 10:20:16;;;;;;;7.22;2.65;;;;;;;;;;5038832;28;31926;-74
2021/04/02 10:22:42;;;;;;;5.68;1.80;;;;;;;;;;5039216;28;33534;-73
2021/04/02 10:25:08;;;;;;;7.82;2.10;;;;;;;;;;5039451;28;32272;-76
2021/04/02 10:27:34;;;;;;;8.00;1.80;;;;;;;;;;5039678;28;32597;-75
2021/04/02 10:29:59;;;;;;;7.35;1.67;;;;;;;;;;5039089;28;32071;-76
2021/04/02 10:32:25;;;;;;;7.43;2.20;;;;;;;;;;5049333;28;32365;-75
2021/04/02 10:34:53;;;;;;;10.93;1.92;;;;;;;;;;5057928;28;32861;-72
2021/04/02 10:37:19;;;;;;;9.48;2.30;;;;;;;;;;5046205;28;31994;-73
2021/04/02 10:39:44;;;;;;;7.72;3.13;;;;;;;;;;5038861;28;32051;-71
2021/04/02 10:42:10;;;;;;;14.70;2.05;;;;;;;;;;5038890;28;32292;-76
2021/04/02 10:44:36;;;;;;;6.93;2.40;;;;;;;;;;5039715;28;32367;-73
2021/04/02 10:47:01;;;;;;;8.40;2.28;;;;;;;;;;5044638;28;32020;-74
2021/04/02 10:49:27;;;;;;;12.48;2.03;;;;;;;;;;5049814;28;32679;-70
2021/04/02 10:51:53;;;;;;;7.63;2.17;;;;;;;;;;5057184;28;31216;-75
2021/04/02 10:54:18;;;;;;;6.18;1.80;;;;;;;;;;5058389;28;32917;-74
2021/04/02 10:56:44;;;;;;;13.50;2.47;;;;;;;;;;5055577;28;31906;-73
2021/04/02 10:59:10;;;;;;;5.50;2.25;;;;;;;;;;5057985;28;32475;-70
2021/04/02 11:01:36;;;;;;;7.82;1.92;;;;;;;;;;5056615;28;32079;-73
2021/04/02 11:04:02;;;;;;;11.50;1.95;;;;;;;;;;5058758;28;32424;-73
2021/04/02 11:06:27;;;;;;;10.35;2.20;;;;;;;;;;5052710;28;31662;-70
2021/04/02 11:08:53;;;;;;;6.50;2.00;;;;;;;;;;5038133;28;32942;-76
2021/04/02 11:11:19;;;;;;;10.35;2.88;;;;;;;;;;5053171;28;31049;-74
2021/04/02 11:13:44;;;;;;;10.27;2.25;;;;;;;;;;5056890;28;32873;-74
2021/04/02 11:16:11;;;;;;;7.20;2.42;;;;;;;;;;5054072;28;31698;-74
2021/04/02 11:18:36;;;;;;;6.05;2.33;;;;;;;;;;5061280;28;32089;-72
2021/04/02 11:21:02;;;;;;;11.40;2.90;;;;;;;;;;5065643;28;33476;-71
2021/04/02 11:23:28;;;;;;;13.23;3.17;;;;;;;;;;5067925;28;32349;-72
2021/04/02 11:25:55;;;;;;;7.70;2.13;;;;;;;;;;5074104;28;31922;-73
2021/04/02 11:28:20;;;;;;;6.85;2.97;;;;;;;;;;5065172;28;31589;-70
2021/04/02 11:30:46;;;;;;;9.88;2.75;;;;;;;;;;5064733;28;32513;-70
2021/04/02 11:33:12;;;;;;;7.72;2.75;;;;;;;;;;5067262;28;31981;-72
2021/04/02 11:35:37;;;;;;;14.45;3.15;;;;;;;;;;5056125;28;31966;-72
2021/04/02 11:38:03;;;;;;;6.68;2.92;;;;;;;;;;5055239;28;32009;-72
2021/04/02 11:40:31;;;;;;;7.38;2.90;;;;;;;;;;5061954;28;32262;-72
2021/04/02 11:42:57;;;;;;;7.85;3.17;;;;;;;;;;5055572;28;31094;-70
2021/04/02 11:45:22;;;;;;;8.70;2.97;;;;;;;;;;5052814;28;32799;-74
2021/04/02 11:47:49;;;;;;;7.75;3.65;;;;;;;;;;5053932;28;32088;-74
2021/04/02 11:50:15;;;;;;;8.73;4.20;;;;;;;;;;5061830;28;32475;-73
2021/04/02 11:52:41;;;;;;;11.10;7.22;;;;;;;;;;5054788;28;31914;-71
2021/04/02 11:55:08;;;;;;;21.88;9.32;;;;;;;;;;5054744;28;32076;-72
2021/04/02 11:57:33;;;;;;;12.75;8.25;;;;;;;;;;5043870;28;32943;-76
2021/04/02 11:59:59;;;;;;;14.02;9.10;;;;;;;;;;5056785;28;32549;-72
2021/04/02 12:02:25;;;;;;;15.70;10.07;;;;;;;;;;5054804;28;33335;-73
2021/04/02 12:04:51;;;;;;;12.05;7.88;;;;;;;;;;5055436;28;31075;-73
2021/04/02 12:07:16;;;;;;;18.48;7.93;;;;;;;;;;5055305;28;32087;-71
2021/04/02 12:09:42;;;;;;;15.52;8.98;;;;;;;;;;5057004;28;32284;-74
2021/04/02 12:12:08;;;;;;;22.25;8.85;;;;;;;;;;5055887;28;30882;-71
2021/04/02 12:14:33;;;;;;;21.40;8.57;;;;;;;;;;5052885;28;31898;-73
2021/04/02 12:16:59;;;;;;;25.30;8.52;;;;;;;;;;5047491;28;32631;-75
2021/04/02 12:19:25;;;;;;;11.05;8.13;;;;;;;;;;5037403;28;32761;-72
2021/04/02 12:21:51;;;;;;;17.55;8.60;;;;;;;;;;5044830;28;32170;-77
2021/04/02 12:24:16;;;;;;;13.00;8.43;;;;;;;;;;5056893;28;31876;-72
2021/04/02 12:26:42;;;;;;;16.92;9.25;;;;;;;;;;5047296;28;32964;-75
2021/04/02 12:29:08;;;;;;;15.25;8.75;;;;;;;;;;5042162;28;33632;-74
2021/04/02 12:31:33;;;;;;;14.52;9.68;;;;;;;;;;5056509;28;32261;-78
2021/04/02 12:33:59;;;;;;;21.38;10.00;;;;;;;;;;5054471;28;32492;-71
2021/04/02 12:36:25;;;;;;;13.25;8.38;;;;;;;;;;5060889;28;31715;-75
2021/04/02 12:38:50;;;;;;;11.15;6.15;;;;;;;;;;5064234;28;33576;-72
2021/04/02 12:41:16;;;;;;;8.77;6.20;;;;;;;;;;5063996;28;30693;-74
2021/04/02 12:43:42;;;;;;;10.52;6.20;;;;;;;;;;5056725;28;31653;-73
2021/04/02 12:46:07;;;;;;;15.00;6.65;;;;;;;;;;5055297;28;31810;-76
2021/04/02 12:48:33;;;;;;;13.90;5.50;;;;;;;;;;5053103;28;32537;-76
2021/04/02 12:50:59;;;;;;;13.25;4.22;;;;;;;;;;5056251;28;33087;-70
2021/04/02 12:53:25;;;;;;;15.43;4.55;;;;;;;;;;5056145;28;32894;-72
2021/04/02 12:55:51;;;;;;;8.95;3.42;;;;;;;;;;5055962;28;31927;-71
2021/04/02 12:58:17;;;;;;;19.33;4.53;;;;;;;;;;5054319;28;32490;-72
2021/04/02 13:00:43;;;;;;;14.10;3.53;;;;;;;;;;5058738;28;31593;-75
2021/04/02 13:03:09;;;;;;;15.75;3.22;;;;;;;;;;5059499;28;31952;-73
2021/04/02 13:05:46;;;;;;;9.65;3.20;;;;;;;;;;5058343;28;31405;-73
2021/04/02 13:08:13;;;;;;;12.00;3.28;;;;;;;;;;5063667;28;32309;-78
2021/04/02 13:10:39;;;;;;;11.88;2.97;;;;;;;;;;5070196;28;30772;-73
2021/04/02 13:13:05;;;;;;;9.50;2.38;;;;;;;;;;5068540;28;32918;-70
2021/04/02 13:15:31;;;;;;;19.52;3.08;;;;;;;;;;5063917;28;32325;-71
2021/04/02 13:17:57;;;;;;;12.73;4.28;;;;;;;;;;5066482;28;32697;-74
2021/04/02 13:20:26;;;;;;;16.05;5.35;;;;;;;;;;5070396;28;32750;-72
2021/04/02 13:22:53;;;;;;;12.70;4.05;;;;;;;;;;5066206;28;32887;-72
2021/04/02 13:25:19;;;;;;;11.80;3.50;;;;;;;;;;5069160;28;31692;-73
2021/04/02 13:27:44;;;;;;;11.30;3.72;;;;;;;;;;5059253;28;32476;-71
2021/04/02 13:30:12;;;;;;;11.10;3.13;;;;;;;;;;5046977;28;31092;-72
2021/04/02 13:32:39;;;;;;;17.60;3.15;;;;;;;;;;5057670;28;32602;-72
2021/04/02 13:35:05;;;;;;;8.65;2.92;;;;;;;;;;5058221;28;32091;-72
2021/04/02 13:37:30;;;;;;;7.47;2.63;;;;;;;;;;5044723;28;33598;-75
2021/04/02 13:39:56;;;;;;;14.00;3.05;;;;;;;;;;5046304;28;32225;-71
2021/04/02 13:42:22;;;;;;;7.45;2.33;;;;;;;;;;5068930;28;32766;-72
2021/04/02 13:44:47;;;;;;;10.35;1.88;;;;;;;;;;5055602;28;32032;-73
2021/04/02 13:47:13;;;;;;;11.73;2.50;;;;;;;;;;5065007;28;32601;-72
2021/04/02 13:49:39;;;;;;;9.60;2.55;;;;;;;;;;5058349;28;32411;-71
2021/04/02 13:52:05;;;;;;;11.80;2.40;;;;;;;;;;5047365;28;30773;-72
2021/04/02 13:54:30;;;;;;;15.52;2.92;;;;;;;;;;5041830;28;32152;-73
2021/04/02 13:56:56;;;;;;;8.00;2.70;;;;;;;;;;5054785;28;33166;-73
2021/04/02 13:59:22;;;;;;;10.00;2.30;;;;;;;;;;5053294;28;36567;-73
2021/04/02 14:01:47;;;;;;;24.38;3.00;;;;;;;;;;5047910;28;31994;-72
2021/04/02 14:04:13;;;;;;;12.70;4.15;;;;;;;;;;5057585;28;32041;-72
2021/04/02 14:06:39;;;;;;;8.23;3.50;;;;;;;;;;5050159;28;31219;-72
2021/04/02 14:09:05;;;;;;;16.40;3.78;;;;;;;;;;5051652;28;33686;-72
2021/04/02 14:11:30;;;;;;;6.75;2.20;;;;;;;;;;5052101;28;31598;-72
2021/04/02 14:13:56;;;;;;;13.82;2.65;;;;;;;;;;5054567;28;32575;-71
2021/04/02 14:16:22;;;;;;;11.48;2.67;;;;;;;;;;5054063;28;32279;-72
2021/04/02 14:18:47;;;;;;;10.88;2.53;;;;;;;;;;5054576;28;33112;-73
2021/04/02 14:21:13;;;;;;;15.70;2.25;;;;;;;;;;5055240;28;31801;-73
2021/04/02 14:23:39;;;;;;;14.10;2.40;;;;;;;;;;5050391;28;32952;-72
2021/04/02 14:26:04;;;;;;;10.98;2.10;;;;;;;;;;5043289;28;32347;-72
2021/04/02 14:28:30;;;;;;;14.02;2.30;;;;;;;;;;5050300;28;32945;-73
2021/04/02 14:30:56;;;;;;;12.68;2.13;;;;;;;;;;5043614;28;31825;-73
2021/04/02 14:33:21;;;;;;;6.65;2.38;;;;;;;;;;5047832;28;32872;-72
2021/04/02 14:35:47;;;;;;;11.02;2.25;;;;;;;;;;5056117;28;32645;-73
2021/04/02 14:38:13;;;;;;;11.38;2.75;;;;;;;;;;5052065;28;32073;-73